sensor_id;sensor_type;location;lat;lon;timestamp;P1;durP1;ratioP1;P2;durP2;ratioP2
39502;SDS011;26970;49.900;10.774;2022-07-10T00:02:08;4.40;;;3.38;;
39502;SDS011;26970;49.900;10.774;2022-07-10T00:04:34;4.78;;;3.20;;
39502;SDS011;26970;49.900;10.774;2022-07-10T00:07:00;4.93;;;3.47;;
39502;SDS011;26970;49.900;10.774;2022-07-10T00:09:27;4.85;;;3.30;;
39502;SDS011;26970;49.900;10.774;2022-07-10T00:11:53;4.53;;;3.28;;
39502;SDS011;26970;49.900;10.774;2022-07-10T00:14:18;5.30;;;3.72;;
39502;SDS011;26970;49.900;10.774;2022-07-10T00:16:45;4.88;;;3.75;;
39502;SDS011;26970;49.900;10.774;2022-07-10T00:19:10;5.43;;;3.53;;
39502;SDS011;26970;49.900;10.774;2022-07-10T00:21:36;5.10;;;3.70;;
39502;SDS011;26970;49.900;10.774;2022-07-10T00:24:02;4.60;;;3.58;;
39502;SDS011;26970;49.900;10.774;2022-07-10T00:26:27;6.45;;;3.50;;
39502;SDS011;26970;49.900;10.774;2022-07-10T00:28:53;6.68;;;3.72;;
39502;SDS011;26970;49.900;10.774;2022-07-10T00:31:19;4.68;;;3.45;;
39502;SDS011;26970;49.900;10.774;2022-07-10T00:33:45;5.60;;;3.65;;
39502;SDS011;26970;49.900;10.774;2022-07-10T00:36:11;5.90;;;3.80;;
39502;SDS011;26970;49.900;10.774;2022-07-10T00:38:36;7.40;;;4.10;;
39502;SDS011;26970;49.900;10.774;2022-07-10T00:41:02;6.35;;;3.75;;
39502;SDS011;26970;49.900;10.774;2022-07-10T00:43:28;5.80;;;3.75;;
39502;SDS011;26970;49.900;10.774;2022-07-10T00:45:53;7.03;;;3.85;;
39502;SDS011;26970;49.900;10.774;2022-07-10T00:48:19;7.13;;;3.63;;
39502;SDS011;26970;49.900;10.774;2022-07-10T00:50:45;10.40;;;3.88;;
39502;SDS011;26970;49.900;10.774;2022-07-10T00:53:14;6.32;;;3.90;;
39502;SDS011;26970;49.900;10.774;2022-07-10T00:55:40;8.02;;;3.38;;
39502;SDS011;26970;49.900;10.774;2022-07-10T00:58:07;5.05;;;3.28;;
39502;SDS011;26970;49.900;10.774;2022-07-10T01:00:35;8.57;;;3.40;;
39502;SDS011;26970;49.900;10.774;2022-07-10T01:03:02;6.43;;;3.28;;
39502;SDS011;26970;49.900;10.774;2022-07-10T01:05:28;5.47;;;2.78;;
39502;SDS011;26970;49.900;10.774;2022-07-10T01:07:54;9.50;;;3.15;;
39502;SDS011;26970;49.900;10.774;2022-07-10T01:10:19;5.68;;;2.80;;
39502;SDS011;26970;49.900;10.774;2022-07-10T01:12:45;10.65;;;3.00;;
39502;SDS011;26970;49.900;10.774;2022-07-10T01:15:11;4.60;;;2.55;;
39502;SDS011;26970;49.900;10.774;2022-07-10T01:17:36;8.38;;;2.70;;
39502;SDS011;26970;49.900;10.774;2022-07-10T01:20:06;6.45;;;2.60;;
39502;SDS011;26970;49.900;10.774;2022-07-10T01:22:33;6.85;;;3.00;;
39502;SDS011;26970;49.900;10.774;2022-07-10T01:24:58;4.68;;;2.47;;
39502;SDS011;26970;49.900;10.774;2022-07-10T01:27:24;6.35;;;2.97;;
39502;SDS011;26970;49.900;10.774;2022-07-10T01:29:49;3.22;;;2.17;;
39502;SDS011;26970;49.900;10.774;2022-07-10T01:32:18;6.13;;;2.70;;
39502;SDS011;26970;49.900;10.774;2022-07-10T01:34:43;4.70;;;2.42;;
39502;SDS011;26970;49.900;10.774;2022-07-10T01:37:10;8.85;;;2.53;;
39502;SDS011;26970;49.900;10.774;2022-07-10T01:39:35;5.10;;;2.20;;
39502;SDS011;26970;49.900;10.774;2022-07-10T01:42:01;6.55;;;2.33;;
39502;SDS011;26970;49.900;10.774;2022-07-10T01:44:27;7.25;;;2.38;;
39502;SDS011;26970;49.900;10.774;2022-07-10T01:46:52;4.38;;;2.20;;
39502;SDS011;26970;49.900;10.774;2022-07-10T01:49:18;3.88;;;2.13;;
39502;SDS011;26970;49.900;10.774;2022-07-10T01:51:43;7.57;;;2.55;;
39502;SDS011;26970;49.900;10.774;2022-07-10T01:54:09;3.85;;;2.10;;
39502;SDS011;26970;49.900;10.774;2022-07-10T01:56:34;3.80;;;2.03;;
39502;SDS011;26970;49.900;10.774;2022-07-10T01:59:00;9.50;;;2.30;;
39502;SDS011;26970;49.900;10.774;2022-07-10T02:01:28;3.50;;;1.98;;
39502;SDS011;26970;49.900;10.774;2022-07-10T02:03:54;4.90;;;2.20;;
39502;SDS011;26970;49.900;10.774;2022-07-10T02:06:37;5.75;;;2.10;;
39502;SDS011;26970;49.900;10.774;2022-07-10T02:09:03;6.45;;;2.22;;
39502;SDS011;26970;49.900;10.774;2022-07-10T02:11:28;5.03;;;2.30;;
39502;SDS011;26970;49.900;10.774;2022-07-10T02:13:54;4.68;;;2.40;;
39502;SDS011;26970;49.900;10.774;2022-07-10T02:16:19;5.57;;;1.92;;
39502;SDS011;26970;49.900;10.774;2022-07-10T02:18:45;6.82;;;2.70;;
39502;SDS011;26970;49.900;10.774;2022-07-10T02:21:10;8.77;;;2.30;;
39502;SDS011;26970;49.900;10.774;2022-07-10T02:23:36;4.22;;;1.80;;
39502;SDS011;26970;49.900;10.774;2022-07-10T02:26:04;4.72;;;2.03;;
39502;SDS011;26970;49.900;10.774;2022-07-10T02:28:29;6.38;;;2.25;;
39502;SDS011;26970;49.900;10.774;2022-07-10T02:30:55;7.00;;;2.13;;
39502;SDS011;26970;49.900;10.774;2022-07-10T02:33:21;5.65;;;1.80;;
39502;SDS011;26970;49.900;10.774;2022-07-10T02:35:46;5.38;;;2.10;;
39502;SDS011;26970;49.900;10.774;2022-07-10T02:38:12;6.72;;;2.35;;
39502;SDS011;26970;49.900;10.774;2022-07-10T02:40:37;6.40;;;2.13;;
39502;SDS011;26970;49.900;10.774;2022-07-10T02:43:03;6.13;;;2.10;;
39502;SDS011;26970;49.900;10.774;2022-07-10T02:45:28;7.82;;;2.45;;
39502;SDS011;26970;49.900;10.774;2022-07-10T02:47:54;4.75;;;1.83;;
39502;SDS011;26970;49.900;10.774;2022-07-10T02:50:19;9.30;;;2.42;;
39502;SDS011;26970;49.900;10.774;2022-07-10T02:52:45;6.93;;;2.13;;
39502;SDS011;26970;49.900;10.774;2022-07-10T02:55:10;6.45;;;2.20;;
39502;SDS011;26970;49.900;10.774;2022-07-10T02:57:36;6.28;;;2.58;;
39502;SDS011;26970;49.900;10.774;2022-07-10T03:00:02;6.78;;;2.05;;
39502;SDS011;26970;49.900;10.774;2022-07-10T03:02:28;6.57;;;2.15;;
39502;SDS011;26970;49.900;10.774;2022-07-10T03:04:53;6.07;;;2.20;;
39502;SDS011;26970;49.900;10.774;2022-07-10T03:07:19;7.25;;;1.90;;
39502;SDS011;26970;49.900;10.774;2022-07-10T03:09:44;5.18;;;1.88;;
39502;SDS011;26970;49.900;10.774;2022-07-10T03:12:10;4.72;;;2.13;;
39502;SDS011;26970;49.900;10.774;2022-07-10T03:14:35;4.57;;;1.90;;
39502;SDS011;26970;49.900;10.774;2022-07-10T03:17:01;9.35;;;2.55;;
39502;SDS011;26970;49.900;10.774;2022-07-10T03:19:27;9.15;;;2.10;;
39502;SDS011;26970;49.900;10.774;2022-07-10T03:21:52;6.82;;;2.15;;
39502;SDS011;26970;49.900;10.774;2022-07-10T03:24:18;8.25;;;2.40;;
39502;SDS011;26970;49.900;10.774;2022-07-10T03:26:43;6.53;;;2.13;;
39502;SDS011;26970;49.900;10.774;2022-07-10T03:29:09;4.47;;;1.75;;
39502;SDS011;26970;49.900;10.774;2022-07-10T03:31:35;7.40;;;2.05;;
39502;SDS011;26970;49.900;10.774;2022-07-10T03:34:01;5.15;;;2.00;;
39502;SDS011;26970;49.900;10.774;2022-07-10T03:36:26;4.20;;;1.58;;
39502;SDS011;26970;49.900;10.774;2022-07-10T03:38:52;6.18;;;1.80;;
39502;SDS011;26970;49.900;10.774;2022-07-10T03:41:18;4.53;;;1.80;;
39502;SDS011;26970;49.900;10.774;2022-07-10T03:43:44;6.60;;;1.80;;
39502;SDS011;26970;49.900;10.774;2022-07-10T03:46:09;5.13;;;1.80;;
39502;SDS011;26970;49.900;10.774;2022-07-10T03:48:35;4.22;;;1.88;;
39502;SDS011;26970;49.900;10.774;2022-07-10T03:51:00;4.88;;;1.40;;
39502;SDS011;26970;49.900;10.774;2022-07-10T03:53:26;5.50;;;2.00;;
39502;SDS011;26970;49.900;10.774;2022-07-10T03:55:52;3.88;;;1.60;;
39502;SDS011;26970;49.900;10.774;2022-07-10T03:58:19;9.30;;;1.90;;
39502;SDS011;26970;49.900;10.774;2022-07-10T04:00:44;5.53;;;1.65;;
39502;SDS011;26970;49.900;10.774;2022-07-10T04:03:10;3.08;;;1.35;;
39502;SDS011;26970;49.900;10.774;2022-07-10T04:05:35;3.47;;;1.50;;
39502;SDS011;26970;49.900;10.774;2022-07-10T04:08:02;3.22;;;1.40;;
39502;SDS011;26970;49.900;10.774;2022-07-10T04:10:29;3.85;;;1.55;;
39502;SDS011;26970;49.900;10.774;2022-07-10T04:12:56;5.00;;;1.70;;
39502;SDS011;26970;49.900;10.774;2022-07-10T04:15:22;3.35;;;1.20;;
39502;SDS011;26970;49.900;10.774;2022-07-10T04:17:48;4.65;;;1.48;;
39502;SDS011;26970;49.900;10.774;2022-07-10T04:20:13;4.47;;;1.42;;
39502;SDS011;26970;49.900;10.774;2022-07-10T04:22:39;6.95;;;1.67;;
39502;SDS011;26970;49.900;10.774;2022-07-10T04:25:05;3.80;;;1.30;;
39502;SDS011;26970;49.900;10.774;2022-07-10T04:27:32;3.33;;;1.25;;
39502;SDS011;26970;49.900;10.774;2022-07-10T04:29:57;4.22;;;1.35;;
39502;SDS011;26970;49.900;10.774;2022-07-10T04:32:23;3.60;;;1.20;;
39502;SDS011;26970;49.900;10.774;2022-07-10T04:34:49;2.55;;;1.20;;
39502;SDS011;26970;49.900;10.774;2022-07-10T04:37:15;4.72;;;1.42;;
39502;SDS011;26970;49.900;10.774;2022-07-10T04:39:41;7.40;;;1.65;;
39502;SDS011;26970;49.900;10.774;2022-07-10T04:42:07;3.05;;;1.10;;
39502;SDS011;26970;49.900;10.774;2022-07-10T04:44:33;5.15;;;1.20;;
39502;SDS011;26970;49.900;10.774;2022-07-10T04:46:59;11.02;;;2.45;;
39502;SDS011;26970;49.900;10.774;2022-07-10T04:49:25;10.73;;;1.80;;
39502;SDS011;26970;49.900;10.774;2022-07-10T04:51:51;5.70;;;1.48;;
39502;SDS011;26970;49.900;10.774;2022-07-10T04:54:16;5.53;;;1.40;;
39502;SDS011;26970;49.900;10.774;2022-07-10T04:56:42;6.05;;;1.48;;
39502;SDS011;26970;49.900;10.774;2022-07-10T04:59:08;4.20;;;1.42;;
39502;SDS011;26970;49.900;10.774;2022-07-10T05:01:34;7.70;;;1.70;;
39502;SDS011;26970;49.900;10.774;2022-07-10T05:04:00;4.72;;;1.40;;
39502;SDS011;26970;49.900;10.774;2022-07-10T05:06:26;8.63;;;1.65;;
39502;SDS011;26970;49.900;10.774;2022-07-10T05:08:51;3.47;;;1.40;;
39502;SDS011;26970;49.900;10.774;2022-07-10T05:11:18;6.82;;;1.60;;
39502;SDS011;26970;49.900;10.774;2022-07-10T05:13:44;6.47;;;1.80;;
39502;SDS011;26970;49.900;10.774;2022-07-10T05:16:11;4.55;;;1.60;;
39502;SDS011;26970;49.900;10.774;2022-07-10T05:18:38;4.07;;;1.50;;
39502;SDS011;26970;49.900;10.774;2022-07-10T05:21:05;4.63;;;1.90;;
39502;SDS011;26970;49.900;10.774;2022-07-10T05:23:31;4.00;;;1.55;;
39502;SDS011;26970;49.900;10.774;2022-07-10T05:25:56;4.65;;;1.77;;
39502;SDS011;26970;49.900;10.774;2022-07-10T05:28:22;4.50;;;1.50;;
39502;SDS011;26970;49.900;10.774;2022-07-10T05:30:47;4.60;;;1.40;;
39502;SDS011;26970;49.900;10.774;2022-07-10T05:33:14;3.95;;;1.35;;
39502;SDS011;26970;49.900;10.774;2022-07-10T05:35:40;4.95;;;1.50;;
39502;SDS011;26970;49.900;10.774;2022-07-10T05:38:05;4.70;;;1.50;;
39502;SDS011;26970;49.900;10.774;2022-07-10T05:40:31;4.55;;;1.40;;
39502;SDS011;26970;49.900;10.774;2022-07-10T05:42:56;4.22;;;1.40;;
39502;SDS011;26970;49.900;10.774;2022-07-10T05:45:22;4.30;;;1.40;;
39502;SDS011;26970;49.900;10.774;2022-07-10T05:47:48;3.72;;;1.30;;
39502;SDS011;26970;49.900;10.774;2022-07-10T05:50:13;6.57;;;1.80;;
39502;SDS011;26970;49.900;10.774;2022-07-10T05:52:39;4.90;;;1.30;;
39502;SDS011;26970;49.900;10.774;2022-07-10T05:55:05;4.15;;;1.08;;
39502;SDS011;26970;49.900;10.774;2022-07-10T05:57:31;4.18;;;1.27;;
39502;SDS011;26970;49.900;10.774;2022-07-10T05:59:57;4.25;;;1.30;;
39502;SDS011;26970;49.900;10.774;2022-07-10T06:02:23;3.08;;;1.10;;
39502;SDS011;26970;49.900;10.774;2022-07-10T06:04:48;3.30;;;1.23;;
39502;SDS011;26970;49.900;10.774;2022-07-10T06:07:14;3.15;;;1.00;;
39502;SDS011;26970;49.900;10.774;2022-07-10T06:09:40;2.45;;;0.88;;
39502;SDS011;26970;49.900;10.774;2022-07-10T06:12:05;3.92;;;0.90;;
39502;SDS011;26970;49.900;10.774;2022-07-10T06:14:31;3.17;;;1.00;;
39502;SDS011;26970;49.900;10.774;2022-07-10T06:16:56;2.08;;;1.05;;
39502;SDS011;26970;49.900;10.774;2022-07-10T06:19:22;3.03;;;0.98;;
39502;SDS011;26970;49.900;10.774;2022-07-10T06:21:47;4.75;;;1.27;;
39502;SDS011;26970;49.900;10.774;2022-07-10T06:24:13;3.15;;;1.20;;
39502;SDS011;26970;49.900;10.774;2022-07-10T06:26:38;6.05;;;1.45;;
39502;SDS011;26970;49.900;10.774;2022-07-10T06:29:04;5.03;;;1.33;;
39502;SDS011;26970;49.900;10.774;2022-07-10T06:31:30;4.80;;;1.52;;
39502;SDS011;26970;49.900;10.774;2022-07-10T06:33:56;7.13;;;1.45;;
39502;SDS011;26970;49.900;10.774;2022-07-10T06:36:21;4.25;;;1.33;;
39502;SDS011;26970;49.900;10.774;2022-07-10T06:38:47;2.75;;;1.25;;
39502;SDS011;26970;49.900;10.774;2022-07-10T06:41:12;4.55;;;1.30;;
39502;SDS011;26970;49.900;10.774;2022-07-10T06:43:38;7.72;;;1.75;;
39502;SDS011;26970;49.900;10.774;2022-07-10T06:46:03;8.40;;;1.33;;
39502;SDS011;26970;49.900;10.774;2022-07-10T06:48:29;5.43;;;1.48;;
39502;SDS011;26970;49.900;10.774;2022-07-10T06:50:55;4.38;;;1.33;;
39502;SDS011;26970;49.900;10.774;2022-07-10T06:53:21;4.05;;;1.27;;
39502;SDS011;26970;49.900;10.774;2022-07-10T06:55:51;10.50;;;1.55;;
39502;SDS011;26970;49.900;10.774;2022-07-10T06:58:16;3.17;;;1.90;;
39502;SDS011;26970;49.900;10.774;2022-07-10T07:00:42;3.30;;;1.08;;
39502;SDS011;26970;49.900;10.774;2022-07-10T07:03:07;4.07;;;1.10;;
39502;SDS011;26970;49.900;10.774;2022-07-10T07:05:33;2.63;;;0.90;;
39502;SDS011;26970;49.900;10.774;2022-07-10T07:07:59;4.47;;;1.10;;
39502;SDS011;26970;49.900;10.774;2022-07-10T07:10:24;2.55;;;0.90;;
39502;SDS011;26970;49.900;10.774;2022-07-10T07:12:50;4.63;;;1.33;;
39502;SDS011;26970;49.900;10.774;2022-07-10T07:15:15;3.83;;;1.10;;
39502;SDS011;26970;49.900;10.774;2022-07-10T07:17:41;5.32;;;1.30;;
39502;SDS011;26970;49.900;10.774;2022-07-10T07:20:33;4.50;;;1.23;;
39502;SDS011;26970;49.900;10.774;2022-07-10T07:23:18;3.00;;;1.60;;
39502;SDS011;26970;49.900;10.774;2022-07-10T07:25:44;4.45;;;1.30;;
39502;SDS011;26970;49.900;10.774;2022-07-10T07:28:13;3.88;;;1.30;;
39502;SDS011;26970;49.900;10.774;2022-07-10T07:30:43;5.32;;;1.38;;
39502;SDS011;26970;49.900;10.774;2022-07-10T07:33:09;4.03;;;1.30;;
39502;SDS011;26970;49.900;10.774;2022-07-10T07:35:34;3.10;;;1.30;;
39502;SDS011;26970;49.900;10.774;2022-07-10T07:38:01;4.95;;;1.60;;
39502;SDS011;26970;49.900;10.774;2022-07-10T07:40:27;4.32;;;1.15;;
39502;SDS011;26970;49.900;10.774;2022-07-10T07:42:53;3.88;;;1.17;;
39502;SDS011;26970;49.900;10.774;2022-07-10T07:45:20;2.80;;;0.95;;
39502;SDS011;26970;49.900;10.774;2022-07-10T07:47:53;3.95;;;1.02;;
39502;SDS011;26970;49.900;10.774;2022-07-10T07:50:21;3.70;;;1.25;;
39502;SDS011;26970;49.900;10.774;2022-07-10T07:52:51;3.33;;;1.10;;
39502;SDS011;26970;49.900;10.774;2022-07-10T07:55:18;4.85;;;1.05;;
39502;SDS011;26970;49.900;10.774;2022-07-10T07:57:45;3.80;;;1.10;;
39502;SDS011;26970;49.900;10.774;2022-07-10T08:00:11;3.42;;;1.10;;
39502;SDS011;26970;49.900;10.774;2022-07-10T08:02:39;2.85;;;1.10;;
39502;SDS011;26970;49.900;10.774;2022-07-10T08:05:05;3.55;;;1.33;;
39502;SDS011;26970;49.900;10.774;2022-07-10T08:07:33;3.15;;;1.40;;
39502;SDS011;26970;49.900;10.774;2022-07-10T08:09:59;3.55;;;1.10;;
39502;SDS011;26970;49.900;10.774;2022-07-10T08:12:25;4.00;;;1.00;;
39502;SDS011;26970;49.900;10.774;2022-07-10T08:14:51;3.85;;;1.10;;
39502;SDS011;26970;49.900;10.774;2022-07-10T08:17:16;2.58;;;1.23;;
39502;SDS011;26970;49.900;10.774;2022-07-10T08:19:42;2.97;;;1.00;;
39502;SDS011;26970;49.900;10.774;2022-07-10T08:22:07;4.55;;;1.17;;
39502;SDS011;26970;49.900;10.774;2022-07-10T08:24:33;6.15;;;1.52;;
39502;SDS011;26970;49.900;10.774;2022-07-10T08:26:58;4.20;;;1.38;;
39502;SDS011;26970;49.900;10.774;2022-07-10T08:29:24;5.38;;;1.30;;
39502;SDS011;26970;49.900;10.774;2022-07-10T08:31:52;7.10;;;1.30;;
39502;SDS011;26970;49.900;10.774;2022-07-10T08:34:18;6.15;;;1.02;;
39502;SDS011;26970;49.900;10.774;2022-07-10T08:36:43;4.55;;;1.17;;
39502;SDS011;26970;49.900;10.774;2022-07-10T08:39:09;2.08;;;1.08;;
39502;SDS011;26970;49.900;10.774;2022-07-10T08:41:34;6.32;;;1.35;;
39502;SDS011;26970;49.900;10.774;2022-07-10T08:44:01;4.25;;;1.42;;
39502;SDS011;26970;49.900;10.774;2022-07-10T08:46:27;2.80;;;1.10;;
39502;SDS011;26970;49.900;10.774;2022-07-10T08:48:53;3.35;;;1.35;;
39502;SDS011;26970;49.900;10.774;2022-07-10T08:51:24;3.08;;;1.25;;
39502;SDS011;26970;49.900;10.774;2022-07-10T08:54:00;3.72;;;1.13;;
39502;SDS011;26970;49.900;10.774;2022-07-10T08:56:25;7.38;;;1.75;;
39502;SDS011;26970;49.900;10.774;2022-07-10T08:58:51;2.00;;;1.00;;
39502;SDS011;26970;49.900;10.774;2022-07-10T09:01:19;3.15;;;1.20;;
39502;SDS011;26970;49.900;10.774;2022-07-10T09:03:48;2.97;;;1.25;;
39502;SDS011;26970;49.900;10.774;2022-07-10T09:06:15;7.32;;;1.40;;
39502;SDS011;26970;49.900;10.774;2022-07-10T09:08:44;1.85;;;0.90;;
39502;SDS011;26970;49.900;10.774;2022-07-10T09:11:23;3.72;;;1.30;;
39502;SDS011;26970;49.900;10.774;2022-07-10T09:13:53;7.45;;;1.60;;
39502;SDS011;26970;49.900;10.774;2022-07-10T09:16:30;4.70;;;1.52;;
39502;SDS011;26970;49.900;10.774;2022-07-10T09:18:58;2.47;;;1.02;;
39502;SDS011;26970;49.900;10.774;2022-07-10T09:21:47;2.17;;;1.00;;
39502;SDS011;26970;49.900;10.774;2022-07-10T09:24:17;2.95;;;1.20;;
39502;SDS011;26970;49.900;10.774;2022-07-10T09:29:21;7.35;;;1.70;;
39502;SDS011;26970;49.900;10.774;2022-07-10T09:34:35;4.13;;;1.10;;
39502;SDS011;26970;49.900;10.774;2022-07-10T09:42:33;3.67;;;1.38;;
39502;SDS011;26970;49.900;10.774;2022-07-10T09:47:44;2.92;;;2.03;;
39502;SDS011;26970;49.900;10.774;2022-07-10T09:50:35;3.70;;;1.40;;
39502;SDS011;26970;49.900;10.774;2022-07-10T09:53:05;5.35;;;1.40;;
39502;SDS011;26970;49.900;10.774;2022-07-10T09:55:33;3.28;;;1.27;;
39502;SDS011;26970;49.900;10.774;2022-07-10T10:00:27;5.28;;;1.30;;
39502;SDS011;26970;49.900;10.774;2022-07-10T10:02:58;2.13;;;1.00;;
39502;SDS011;26970;49.900;10.774;2022-07-10T10:08:03;4.55;;;1.30;;
39502;SDS011;26970;49.900;10.774;2022-07-10T10:10:35;3.35;;;1.30;;
39502;SDS011;26970;49.900;10.774;2022-07-10T10:13:06;3.25;;;1.25;;
39502;SDS011;26970;49.900;10.774;2022-07-10T10:15:35;3.28;;;1.23;;
39502;SDS011;26970;49.900;10.774;2022-07-10T10:18:01;4.93;;;1.20;;
39502;SDS011;26970;49.900;10.774;2022-07-10T10:20:27;3.95;;;1.30;;
39502;SDS011;26970;49.900;10.774;2022-07-10T10:23:05;3.17;;;1.30;;
39502;SDS011;26970;49.900;10.774;2022-07-10T10:25:34;3.53;;;1.23;;
39502;SDS011;26970;49.900;10.774;2022-07-10T10:28:02;4.65;;;1.20;;
39502;SDS011;26970;49.900;10.774;2022-07-10T10:30:31;2.15;;;0.80;;
39502;SDS011;26970;49.900;10.774;2022-07-10T10:32:57;6.88;;;1.83;;
39502;SDS011;26970;49.900;10.774;2022-07-10T10:35:44;1.90;;;0.93;;
39502;SDS011;26970;49.900;10.774;2022-07-10T10:38:12;2.65;;;1.30;;
39502;SDS011;26970;49.900;10.774;2022-07-10T10:40:38;4.03;;;1.13;;
39502;SDS011;26970;49.900;10.774;2022-07-10T10:43:19;2.83;;;1.17;;
39502;SDS011;26970;49.900;10.774;2022-07-10T10:48:15;4.63;;;1.25;;
39502;SDS011;26970;49.900;10.774;2022-07-10T11:09:20;9.07;;;2.28;;
39502;SDS011;26970;49.900;10.774;2022-07-10T11:12:06;4.22;;;1.70;;
39502;SDS011;26970;49.900;10.774;2022-07-10T11:14:34;6.15;;;1.40;;
39502;SDS011;26970;49.900;10.774;2022-07-10T11:17:01;3.30;;;1.40;;
39502;SDS011;26970;49.900;10.774;2022-07-10T11:19:28;3.70;;;1.10;;
39502;SDS011;26970;49.900;10.774;2022-07-10T11:25:01;4.50;;;1.35;;
39502;SDS011;26970;49.900;10.774;2022-07-10T11:27:39;1.63;;;0.93;;
39502;SDS011;26970;49.900;10.774;2022-07-10T11:30:27;3.17;;;1.60;;
39502;SDS011;26970;49.900;10.774;2022-07-10T11:32:52;4.50;;;1.30;;
39502;SDS011;26970;49.900;10.774;2022-07-10T11:35:18;5.80;;;1.67;;
39502;SDS011;26970;49.900;10.774;2022-07-10T11:37:53;4.40;;;1.23;;
39502;SDS011;26970;49.900;10.774;2022-07-10T11:40:19;3.22;;;1.15;;
39502;SDS011;26970;49.900;10.774;2022-07-10T11:45:22;3.50;;;1.20;;
39502;SDS011;26970;49.900;10.774;2022-07-10T11:47:50;2.10;;;0.82;;
39502;SDS011;26970;49.900;10.774;2022-07-10T11:50:16;3.22;;;1.30;;
39502;SDS011;26970;49.900;10.774;2022-07-10T11:52:42;3.70;;;1.25;;
39502;SDS011;26970;49.900;10.774;2022-07-10T11:55:16;4.43;;;1.30;;
39502;SDS011;26970;49.900;10.774;2022-07-10T11:57:46;3.55;;;1.08;;
39502;SDS011;26970;49.900;10.774;2022-07-10T12:02:48;2.78;;;1.00;;
39502;SDS011;26970;49.900;10.774;2022-07-10T12:05:33;2.75;;;1.13;;
39502;SDS011;26970;49.900;10.774;2022-07-10T12:08:03;3.20;;;1.20;;
39502;SDS011;26970;49.900;10.774;2022-07-10T12:10:30;5.55;;;1.23;;
39502;SDS011;26970;49.900;10.774;2022-07-10T12:13:04;2.85;;;0.95;;
39502;SDS011;26970;49.900;10.774;2022-07-10T12:15:41;3.22;;;1.27;;
39502;SDS011;26970;49.900;10.774;2022-07-10T12:18:08;2.97;;;1.00;;
39502;SDS011;26970;49.900;10.774;2022-07-10T12:20:41;1.85;;;0.90;;
39502;SDS011;26970;49.900;10.774;2022-07-10T12:23:10;4.47;;;1.20;;
39502;SDS011;26970;49.900;10.774;2022-07-10T12:25:39;3.35;;;1.05;;
39502;SDS011;26970;49.900;10.774;2022-07-10T12:28:06;5.78;;;1.63;;
39502;SDS011;26970;49.900;10.774;2022-07-10T12:30:35;3.63;;;1.38;;
39502;SDS011;26970;49.900;10.774;2022-07-10T12:33:22;2.57;;;1.00;;
39502;SDS011;26970;49.900;10.774;2022-07-10T12:35:49;2.60;;;1.13;;
39502;SDS011;26970;49.900;10.774;2022-07-10T12:38:18;2.60;;;1.00;;
39502;SDS011;26970;49.900;10.774;2022-07-10T12:40:44;3.63;;;1.25;;
39502;SDS011;26970;49.900;10.774;2022-07-10T12:43:10;5.05;;;1.48;;
39502;SDS011;26970;49.900;10.774;2022-07-10T12:45:36;4.53;;;1.42;;
39502;SDS011;26970;49.900;10.774;2022-07-10T12:48:03;3.20;;;0.90;;
39502;SDS011;26970;49.900;10.774;2022-07-10T12:50:31;4.68;;;2.08;;
39502;SDS011;26970;49.900;10.774;2022-07-10T12:53:06;2.90;;;1.10;;
39502;SDS011;26970;49.900;10.774;2022-07-10T12:55:37;3.00;;;1.10;;
39502;SDS011;26970;49.900;10.774;2022-07-10T12:58:13;3.78;;;1.17;;
39502;SDS011;26970;49.900;10.774;2022-07-10T13:00:46;2.65;;;1.27;;
39502;SDS011;26970;49.900;10.774;2022-07-10T13:03:20;3.10;;;1.08;;
39502;SDS011;26970;49.900;10.774;2022-07-10T13:10:50;2.20;;;1.00;;
39502;SDS011;26970;49.900;10.774;2022-07-10T13:13:23;4.07;;;1.30;;
39502;SDS011;26970;49.900;10.774;2022-07-10T13:15:49;4.93;;;1.20;;
39502;SDS011;26970;49.900;10.774;2022-07-10T13:18:21;4.07;;;1.10;;
39502;SDS011;26970;49.900;10.774;2022-07-10T13:20:48;4.20;;;1.10;;
39502;SDS011;26970;49.900;10.774;2022-07-10T13:23:15;3.28;;;1.08;;
39502;SDS011;26970;49.900;10.774;2022-07-10T13:25:44;4.65;;;1.80;;
39502;SDS011;26970;49.900;10.774;2022-07-10T13:28:09;3.63;;;1.52;;
39502;SDS011;26970;49.900;10.774;2022-07-10T13:30:36;2.70;;;1.08;;
39502;SDS011;26970;49.900;10.774;2022-07-10T13:33:02;3.60;;;1.17;;
39502;SDS011;26970;49.900;10.774;2022-07-10T13:35:28;5.03;;;1.25;;
39502;SDS011;26970;49.900;10.774;2022-07-10T13:37:55;2.55;;;1.20;;
39502;SDS011;26970;49.900;10.774;2022-07-10T13:40:24;3.05;;;1.35;;
39502;SDS011;26970;49.900;10.774;2022-07-10T13:42:50;2.10;;;0.75;;
39502;SDS011;26970;49.900;10.774;2022-07-10T13:45:17;3.70;;;1.80;;
39502;SDS011;26970;49.900;10.774;2022-07-10T13:47:42;2.70;;;1.15;;
39502;SDS011;26970;49.900;10.774;2022-07-10T13:50:08;9.70;;;4.28;;
39502;SDS011;26970;49.900;10.774;2022-07-10T13:52:34;4.30;;;2.10;;
39502;SDS011;26970;49.900;10.774;2022-07-10T13:54:59;4.22;;;1.48;;
39502;SDS011;26970;49.900;10.774;2022-07-10T13:57:25;4.03;;;1.30;;
39502;SDS011;26970;49.900;10.774;2022-07-10T13:59:52;3.95;;;1.30;;
39502;SDS011;26970;49.900;10.774;2022-07-10T14:02:18;2.25;;;1.30;;
39502;SDS011;26970;49.900;10.774;2022-07-10T14:04:45;5.35;;;1.38;;
39502;SDS011;26970;49.900;10.774;2022-07-10T14:07:10;4.65;;;1.42;;
39502;SDS011;26970;49.900;10.774;2022-07-10T14:09:36;2.58;;;1.05;;
39502;SDS011;26970;49.900;10.774;2022-07-10T14:12:01;4.28;;;1.35;;
39502;SDS011;26970;49.900;10.774;2022-07-10T14:14:27;3.10;;;1.20;;
39502;SDS011;26970;49.900;10.774;2022-07-10T14:16:52;6.43;;;1.52;;
39502;SDS011;26970;49.900;10.774;2022-07-10T14:19:18;3.50;;;1.23;;
39502;SDS011;26970;49.900;10.774;2022-07-10T14:21:44;3.15;;;1.20;;
39502;SDS011;26970;49.900;10.774;2022-07-10T14:24:09;3.85;;;1.20;;
39502;SDS011;26970;49.900;10.774;2022-07-10T14:26:35;4.60;;;2.05;;
39502;SDS011;26970;49.900;10.774;2022-07-10T14:29:04;2.22;;;1.17;;
39502;SDS011;26970;49.900;10.774;2022-07-10T14:31:30;4.72;;;1.10;;
39502;SDS011;26970;49.900;10.774;2022-07-10T14:33:56;3.92;;;1.33;;
39502;SDS011;26970;49.900;10.774;2022-07-10T14:36:22;1.50;;;0.75;;
39502;SDS011;26970;49.900;10.774;2022-07-10T14:38:51;3.72;;;1.48;;
39502;SDS011;26970;49.900;10.774;2022-07-10T14:41:20;2.72;;;1.20;;
39502;SDS011;26970;49.900;10.774;2022-07-10T14:43:47;3.42;;;1.10;;
39502;SDS011;26970;49.900;10.774;2022-07-10T14:46:12;4.18;;;1.20;;
39502;SDS011;26970;49.900;10.774;2022-07-10T14:48:38;4.22;;;1.25;;
39502;SDS011;26970;49.900;10.774;2022-07-10T14:51:03;3.53;;;1.20;;
39502;SDS011;26970;49.900;10.774;2022-07-10T14:53:29;3.22;;;1.00;;
39502;SDS011;26970;49.900;10.774;2022-07-10T14:55:59;3.15;;;1.13;;
39502;SDS011;26970;49.900;10.774;2022-07-10T14:58:25;2.70;;;1.00;;
39502;SDS011;26970;49.900;10.774;2022-07-10T15:00:50;2.63;;;1.10;;
39502;SDS011;26970;49.900;10.774;2022-07-10T15:03:16;3.47;;;1.10;;
39502;SDS011;26970;49.900;10.774;2022-07-10T15:05:42;2.90;;;1.00;;
39502;SDS011;26970;49.900;10.774;2022-07-10T15:08:07;2.60;;;0.95;;
39502;SDS011;26970;49.900;10.774;2022-07-10T15:10:33;2.25;;;1.10;;
39502;SDS011;26970;49.900;10.774;2022-07-10T15:12:59;2.28;;;0.90;;
39502;SDS011;26970;49.900;10.774;2022-07-10T15:15:25;4.32;;;1.10;;
39502;SDS011;26970;49.900;10.774;2022-07-10T15:17:50;1.92;;;0.90;;
39502;SDS011;26970;49.900;10.774;2022-07-10T15:20:16;2.42;;;0.93;;
39502;SDS011;26970;49.900;10.774;2022-07-10T15:22:43;5.90;;;0.80;;
39502;SDS011;26970;49.900;10.774;2022-07-10T15:25:09;2.22;;;0.82;;
39502;SDS011;26970;49.900;10.774;2022-07-10T15:27:35;2.42;;;1.02;;